Time;durP1;ratioP1;P1;durP2;ratioP2;P2;SDS_P1;SDS_P2;PMS_P1;PMS_P2;Temp;Humidity;BMP_temperature;BMP_pressure;BME280_temperature;BME280_humidity;BME280_pressure;Samples;Min_cycle;Max_cycle;Signal;HPM_P1;HPM_P2
2024/01/19 00:00:30;;;;;;;4.90;1.90;;;9.80;76.80;;;;;;6157896;23;19989;-81
2024/01/19 00:02:57;;;;;;;4.03;1.80;;;9.80;76.80;;;;;;6158344;23;20016;-79
2024/01/19 00:05:23;;;;;;;4.05;1.98;;;9.80;76.80;;;;;;6158431;23;20009;-82
2024/01/19 00:07:51;;;;;;;4.93;2.22;;;9.80;76.80;;;;;;6183101;23;20017;-80
2024/01/19 00:10:17;;;;;;;4.43;1.70;;;9.80;76.80;;;;;;6158165;23;20016;-79
2024/01/19 00:12:45;;;;;;;4.72;1.75;;;9.80;76.80;;;;;;6158193;23;19993;-82
2024/01/19 00:15:11;;;;;;;4.45;1.80;;;9.90;76.90;;;;;;6158438;23;20001;-79
2024/01/19 00:17:37;;;;;;;3.88;2.08;;;9.90;76.90;;;;;;6157929;23;20005;-80
2024/01/19 00:20:04;;;;;;;3.53;1.65;;;9.80;76.80;;;;;;6133753;23;20002;-80
2024/01/19 00:22:30;;;;;;;4.57;1.70;;;9.70;76.80;;;;;;6156457;23;19989;-81
2024/01/19 00:24:56;;;;;;;3.22;1.70;;;9.90;76.90;;;;;;6158505;23;19989;-81
2024/01/19 00:27:22;;;;;;;3.45;1.60;;;9.90;77.00;;;;;;6156738;23;19989;-79
2024/01/19 00:29:48;;;;;;;3.80;1.77;;;9.70;76.90;;;;;;6157833;23;19994;-80
2024/01/19 00:32:14;;;;;;;4.55;1.70;;;9.90;76.90;;;;;;6157035;23;19986;-82
2024/01/19 00:34:40;;;;;;;3.10;1.67;;;9.90;76.90;;;;;;6132730;23;20001;-80
2024/01/19 00:37:07;;;;;;;4.28;1.63;;;9.70;76.80;;;;;;6155810;23;20012;-81
2024/01/19 00:39:33;;;;;;;4.15;1.65;;;9.80;76.80;;;;;;6157257;23;19997;-79
2024/01/19 00:41:59;;;;;;;3.20;1.42;;;9.80;76.90;;;;;;6157573;23;19994;-80
2024/01/19 00:44:26;;;;;;;3.83;1.67;;;9.80;76.90;;;;;;6182966;23;19994;-79
2024/01/19 00:46:55;;;;;;;3.83;1.60;;;9.80;76.90;;;;;;6183201;23;20084;-80
2024/01/19 00:49:21;;;;;;;4.18;1.70;;;10.10;77.10;;;;;;6157437;23;19997;-81
2024/01/19 00:51:49;;;;;;;3.97;1.90;;;9.70;76.90;;;;;;6183285;23;20009;-80
2024/01/19 00:54:15;;;;;;;4.00;1.70;;;9.90;77.00;;;;;;6157927;23;20017;-81
2024/01/19 00:56:47;;;;;;;3.97;1.85;;;10.00;77.10;;;;;;6156831;23;19994;-83
2024/01/19 00:59:13;;;;;;;4.13;1.60;;;9.60;76.90;;;;;;6134593;23;19997;-81
2024/01/19 01:01:44;;;;;;;3.17;1.60;;;9.60;76.90;;;;;;6182081;23;19989;-82
2024/01/19 01:04:14;;;;;;;3.78;1.55;;;9.80;77.00;;;;;;6182870;23;20005;-79
2024/01/19 01:06:43;;;;;;;2.95;1.50;;;9.80;77.00;;;;;;6182287;23;19997;-81
2024/01/19 01:09:11;;;;;;;3.20;1.65;;;9.80;77.00;;;;;;6158112;23;19996;-79
2024/01/19 01:11:38;;;;;;;3.92;1.60;;;9.70;76.90;;;;;;6181550;23;20070;-79
2024/01/19 01:14:04;;;;;;;3.95;1.70;;;10.00;77.00;;;;;;6132015;23;20006;-79
2024/01/19 01:16:30;;;;;;;3.17;1.40;;;9.80;77.00;;;;;;6156853;23;19992;-79
2024/01/19 01:18:57;;;;;;;3.20;1.50;;;10.20;77.30;;;;;;6156472;23;20037;-81
2024/01/19 01:21:23;;;;;;;3.88;1.80;;;9.90;77.20;;;;;;6157865;23;20053;-80
2024/01/19 01:23:49;;;;;;;3.70;1.75;;;9.90;77.10;;;;;;6155896;23;20004;-81
2024/01/19 01:26:16;;;;;;;2.67;1.48;;;9.60;77.00;;;;;;6181510;23;20017;-80
2024/01/19 01:28:44;;;;;;;2.63;1.50;;;9.80;77.10;;;;;;6183385;23;19990;-82
2024/01/19 01:31:11;;;;;;;3.75;1.70;;;9.90;77.20;;;;;;6157598;23;19994;-81
2024/01/19 01:33:38;;;;;;;3.42;1.48;;;9.70;77.00;;;;;;6156805;23;20016;-80
2024/01/19 01:36:04;;;;;;;3.75;1.65;;;9.80;77.10;;;;;;6156287;23;20033;-79
2024/01/19 01:38:30;;;;;;;2.60;1.48;;;9.80;77.10;;;;;;6131904;23;20053;-80
2024/01/19 01:40:56;;;;;;;3.25;1.63;;;9.60;77.10;;;;;;6157080;23;20016;-81
2024/01/19 01:43:24;;;;;;;3.35;1.52;;;9.70;77.10;;;;;;6156539;23;20025;-80
2024/01/19 01:45:52;;;;;;;3.85;1.83;;;9.70;77.10;;;;;;6130852;23;20010;-80
2024/01/19 01:48:19;;;;;;;3.40;1.60;;;9.70;77.00;;;;;;6132149;23;19993;-79
2024/01/19 01:50:46;;;;;;;3.13;1.58;;;9.90;77.70;;;;;;6157548;23;19994;-81
2024/01/19 01:53:15;;;;;;;3.10;1.70;;;9.70;77.10;;;;;;6156992;23;19993;-81
2024/01/19 01:55:41;;;;;;;3.33;1.63;;;9.80;77.10;;;;;;6157017;23;20021;-81
2024/01/19 01:58:08;;;;;;;2.40;1.40;;;9.80;77.20;;;;;;6156388;23;20021;-80
2024/01/19 02:00:39;;;;;;;2.88;1.60;;;9.60;77.10;;;;;;6181925;23;20008;-79
2024/01/19 02:03:06;;;;;;;3.00;1.50;;;9.80;77.20;;;;;;6156759;23;20014;-80
2024/01/19 02:05:33;;;;;;;3.50;1.73;;;9.60;77.00;;;;;;6155787;23;20001;-80
2024/01/19 02:07:59;;;;;;;3.08;1.55;;;9.70;77.10;;;;;;6151294;23;19997;-80
2024/01/19 02:10:26;;;;;;;3.70;1.40;;;9.80;77.20;;;;;;6128160;23;20013;-80
2024/01/19 02:12:52;;;;;;;3.30;1.50;;;9.70;77.20;;;;;;6153317;23;20001;-80
2024/01/19 02:15:23;;;;;;;3.85;1.58;;;9.90;77.30;;;;;;6127172;23;20006;-79
2024/01/19 02:17:50;;;;;;;3.40;1.50;;;9.70;77.20;;;;;;6151767;23;20002;-80
2024/01/19 02:20:17;;;;;;;2.85;1.48;;;9.60;77.10;;;;;;6155743;23;20022;-80
2024/01/19 02:22:44;;;;;;;2.67;1.50;;;9.70;77.20;;;;;;6154579;23;19997;-79
2024/01/19 02:25:12;;;;;;;4.30;1.60;;;9.80;77.20;;;;;;6132271;23;19994;-79
2024/01/19 02:27:38;;;;;;;4.82;1.67;;;9.80;77.20;;;;;;6154750;23;19990;-81
2024/01/19 02:30:07;;;;;;;2.63;1.20;;;9.70;77.20;;;;;;6155794;23;20009;-79
2024/01/19 02:32:33;;;;;;;4.25;1.85;;;9.70;77.20;;;;;;6155632;23;20029;-80
2024/01/19 02:35:00;;;;;;;3.38;1.58;;;9.70;77.20;;;;;;6154581;23;19997;-80
2024/01/19 02:37:27;;;;;;;2.72;1.50;;;9.70;77.20;;;;;;6153678;23;20024;-80
2024/01/19 02:39:53;;;;;;;3.53;1.63;;;9.70;77.20;;;;;;6152611;23;19997;-81
2024/01/19 02:42:22;;;;;;;3.80;1.52;;;9.70;77.20;;;;;;6154147;23;19993;-80
2024/01/19 02:44:48;;;;;;;2.95;1.50;;;9.70;77.20;;;;;;6153200;23;20005;-79
2024/01/19 02:47:15;;;;;;;3.50;1.40;;;9.70;77.20;;;;;;6178822;23;20012;-80
2024/01/19 02:49:41;;;;;;;3.42;1.45;;;9.80;77.30;;;;;;6154001;23;19993;-80
2024/01/19 02:52:07;;;;;;;2.67;1.30;;;9.70;77.30;;;;;;6155046;23;20010;-81
2024/01/19 02:54:33;;;;;;;3.17;1.40;;;9.60;77.20;;;;;;6156002;23;20005;-81
2024/01/19 02:56:58;;;;;;;2.70;1.38;;;9.80;77.20;;;;;;6154659;23;20052;-81
2024/01/19 02:59:25;;;;;;;4.47;1.48;;;9.70;77.20;;;;;;6179662;23;20456;-81
2024/01/19 03:01:51;;;;;;;3.13;1.30;;;9.70;77.10;;;;;;6130047;23;19998;-80
2024/01/19 03:04:18;;;;;;;3.90;1.45;;;9.70;77.10;;;;;;6155230;23;20005;-80
2024/01/19 03:06:44;;;;;;;4.18;1.60;;;9.60;77.00;;;;;;6155275;23;20037;-81
2024/01/19 03:09:10;;;;;;;2.83;1.42;;;9.70;77.20;;;;;;6155753;23;19990;-81
2024/01/19 03:11:37;;;;;;;3.42;1.48;;;9.70;77.20;;;;;;6154499;23;20005;-80
2024/01/19 03:14:03;;;;;;;3.30;1.38;;;9.70;77.20;;;;;;6155898;23;20017;-80
2024/01/19 03:16:29;;;;;;;3.13;1.65;;;9.70;77.20;;;;;;6154941;23;20001;-81
2024/01/19 03:19:00;;;;;;;2.95;1.55;;;9.60;77.10;;;;;;6154432;23;20093;-80
2024/01/19 03:21:26;;;;;;;3.60;1.67;;;9.80;77.30;;;;;;6156368;23;20018;-81
2024/01/19 03:23:54;;;;;;;3.25;1.55;;;9.50;77.10;;;;;;6181059;23;20004;-80
2024/01/19 03:26:20;;;;;;;3.10;1.60;;;9.70;77.30;;;;;;6131113;23;19989;-79
2024/01/19 03:28:46;;;;;;;3.30;1.50;;;9.70;77.30;;;;;;6155743;23;20016;-79
2024/01/19 03:31:13;;;;;;;2.63;1.45;;;9.70;77.30;;;;;;6154225;23;20009;-79
2024/01/19 03:33:39;;;;;;;3.22;1.50;;;9.70;77.30;;;;;;6132028;23;19997;-81
2024/01/19 03:36:05;;;;;;;3.72;1.70;;;9.70;77.30;;;;;;6155761;23;20065;-79
2024/01/19 03:38:31;;;;;;;2.83;1.45;;;9.80;77.40;;;;;;6154995;23;19993;-80
2024/01/19 03:40:58;;;;;;;2.78;1.50;;;10.20;77.60;;;;;;6153634;23;20005;-79
2024/01/19 03:43:24;;;;;;;2.78;1.33;;;9.70;77.20;;;;;;6154778;23;20057;-80
2024/01/19 03:45:50;;;;;;;2.45;1.30;;;9.60;77.30;;;;;;6155008;23;19994;-80
2024/01/19 03:48:16;;;;;;;2.00;1.20;;;9.60;77.30;;;;;;6154507;23;20002;-81
2024/01/19 03:50:45;;;;;;;3.40;1.60;;;9.60;77.30;;;;;;6155512;23;19994;-81
2024/01/19 03:53:12;;;;;;;2.83;1.45;;;9.50;77.30;;;;;;6131799;23;19990;-81
2024/01/19 03:55:38;;;;;;;2.35;1.40;;;9.80;77.50;;;;;;6131620;23;20017;-80
2024/01/19 03:58:06;;;;;;;3.33;1.60;;;9.70;77.40;;;;;;6180731;23;20005;-81
2024/01/19 04:00:34;;;;;;;1.95;1.23;;;9.70;77.30;;;;;;6182025;23;20009;-81
2024/01/19 04:03:00;;;;;;;3.22;1.63;;;9.80;77.40;;;;;;6154452;23;19994;-80
2024/01/19 04:05:26;;;;;;;3.10;1.40;;;10.50;77.80;;;;;;6156104;23;20025;-81
2024/01/19 04:07:52;;;;;;;2.70;1.50;;;9.80;77.50;;;;;;6155391;23;19989;-80
2024/01/19 04:10:18;;;;;;;2.50;1.30;;;9.70;77.50;;;;;;6131886;23;20045;-80
2024/01/19 04:12:44;;;;;;;2.05;1.25;;;9.90;77.60;;;;;;6157869;23;19993;-80
2024/01/19 04:15:10;;;;;;;3.00;1.40;;;9.50;77.40;;;;;;6157984;23;19998;-79
2024/01/19 04:17:36;;;;;;;3.65;1.55;;;9.70;77.50;;;;;;6157250;23;19990;-80
2024/01/19 04:20:04;;;;;;;2.90;1.30;;;9.80;77.60;;;;;;6158068;23;19994;-80
2024/01/19 04:22:31;;;;;;;2.47;1.50;;;9.70;77.50;;;;;;6182320;23;20017;-81
2024/01/19 04:24:57;;;;;;;2.53;1.40;;;9.80;77.50;;;;;;6157365;23;19993;-82
2024/01/19 04:27:26;;;;;;;2.95;1.40;;;9.70;77.50;;;;;;6182340;23;20024;-80
2024/01/19 04:29:54;;;;;;;1.92;1.20;;;9.60;77.50;;;;;;6132887;23;20001;-79
2024/01/19 04:32:20;;;;;;;2.97;1.60;;;9.70;77.50;;;;;;6157538;23;20009;-81
2024/01/19 04:34:47;;;;;;;3.55;1.60;;;9.70;77.40;;;;;;6157538;23;20013;-78
2024/01/19 04:37:14;;;;;;;3.67;1.63;;;9.60;77.40;;;;;;6157424;23;20061;-80
2024/01/19 04:39:40;;;;;;;3.33;1.50;;;9.60;77.40;;;;;;6156797;23;20012;-80
2024/01/19 04:42:06;;;;;;;3.17;1.52;;;9.70;77.50;;;;;;6157880;23;19989;-82
2024/01/19 04:44:32;;;;;;;2.85;1.52;;;9.70;77.50;;;;;;6157633;23;19990;-80
2024/01/19 04:46:58;;;;;;;2.97;1.50;;;9.70;77.50;;;;;;6156457;23;20005;-79
2024/01/19 04:49:26;;;;;;;2.67;1.30;;;9.80;77.60;;;;;;6182821;23;19998;-79
2024/01/19 04:51:52;;;;;;;2.65;1.33;;;9.60;77.50;;;;;;6157284;23;19986;-79
2024/01/19 04:54:20;;;;;;;2.97;1.40;;;9.70;77.50;;;;;;6157907;23;20002;-80
2024/01/19 04:56:48;;;;;;;2.80;1.40;;;9.50;77.40;;;;;;6181738;23;20001;-80
2024/01/19 04:59:16;;;;;;;5.05;1.50;;;9.70;77.50;;;;;;6182153;23;20033;-79
2024/01/19 05:01:48;;;;;;;3.28;1.58;;;9.70;77.60;;;;;;6156640;23;20021;-81
2024/01/19 05:04:15;;;;;;;3.05;1.50;;;9.60;77.50;;;;;;6157729;23;20001;-81
2024/01/19 05:06:43;;;;;;;2.83;1.48;;;9.60;77.50;;;;;;6157541;23;19997;-81
2024/01/19 05:09:09;;;;;;;3.10;1.52;;;9.60;77.60;;;;;;6133010;23;20000;-79
2024/01/19 05:11:36;;;;;;;2.63;1.40;;;10.20;77.90;;;;;;6133344;23;20113;-80
2024/01/19 05:14:04;;;;;;;3.30;1.60;;;9.70;77.60;;;;;;6157161;23;20008;-80
2024/01/19 05:16:30;;;;;;;3.22;1.50;;;10.00;77.80;;;;;;6156063;23;20433;-80
2024/01/19 05:18:56;;;;;;;2.55;1.58;;;9.60;77.50;;;;;;6156153;23;20016;-81
2024/01/19 05:21:24;;;;;;;2.95;1.50;;;9.60;77.60;;;;;;6182274;23;19996;-80
2024/01/19 05:23:50;;;;;;;3.88;1.50;;;9.70;77.60;;;;;;6154732;23;20001;-81
2024/01/19 05:26:16;;;;;;;3.03;1.35;;;9.60;77.50;;;;;;6155890;23;20006;-79
2024/01/19 05:28:42;;;;;;;3.70;1.70;;;9.60;77.50;;;;;;6156462;23;20006;-80
2024/01/19 05:31:10;;;;;;;3.33;1.63;;;9.60;77.60;;;;;;6181572;23;19996;-81
2024/01/19 05:33:38;;;;;;;2.63;1.40;;;9.60;77.60;;;;;;6130967;23;20045;-78
2024/01/19 05:36:05;;;;;;;2.20;1.30;;;9.60;77.60;;;;;;6156875;23;20016;-79
2024/01/19 05:38:31;;;;;;;3.70;1.58;;;9.60;77.60;;;;;;6156438;23;19993;-80
2024/01/19 05:41:01;;;;;;;3.35;1.77;;;9.60;77.60;;;;;;6156278;23;19986;-80
2024/01/19 05:43:27;;;;;;;2.92;1.60;;;9.70;77.60;;;;;;6155714;23;20001;-81
2024/01/19 05:45:54;;;;;;;3.05;1.58;;;9.70;77.70;;;;;;6181212;23;19990;-80
2024/01/19 05:48:25;;;;;;;3.05;1.58;;;9.60;77.50;;;;;;6156984;23;19989;-80
2024/01/19 05:50:51;;;;;;;3.13;1.63;;;9.50;77.50;;;;;;6154408;23;20005;-80
2024/01/19 05:53:17;;;;;;;3.28;1.50;;;9.70;77.60;;;;;;6131221;23;20005;-80
2024/01/19 05:55:43;;;;;;;3.08;1.50;;;9.50;77.50;;;;;;6156609;23;19998;-79
2024/01/19 05:58:10;;;;;;;2.97;1.75;;;9.70;77.60;;;;;;6156145;23;19997;-80
2024/01/19 06:00:37;;;;;;;3.15;1.70;;;10.40;78.10;;;;;;6156405;23;19989;-79
2024/01/19 06:03:03;;;;;;;3.78;1.73;;;9.60;77.60;;;;;;6156301;23;20012;-80
2024/01/19 06:05:29;;;;;;;2.95;1.70;;;9.50;77.60;;;;;;6156691;23;20000;-80
2024/01/19 06:07:55;;;;;;;4.40;1.83;;;9.60;77.60;;;;;;6156689;23;20329;-80
2024/01/19 06:10:22;;;;;;;3.08;1.58;;;9.60;77.60;;;;;;6180894;23;20000;-82
2024/01/19 06:12:48;;;;;;;3.78;1.80;;;9.60;77.60;;;;;;6155437;23;20001;-79
2024/01/19 06:15:14;;;;;;;3.80;1.63;;;9.40;78.10;;;;;;6155764;23;20005;-80
2024/01/19 06:17:41;;;;;;;3.17;1.60;;;9.60;77.70;;;;;;6156296;23;19989;-80
2024/01/19 06:20:07;;;;;;;3.05;1.67;;;9.60;77.60;;;;;;6154194;23;20016;-79
2024/01/19 06:22:33;;;;;;;3.20;1.73;;;9.60;77.60;;;;;;6155160;23;20010;-80
2024/01/19 06:24:59;;;;;;;2.85;1.73;;;9.60;77.70;;;;;;6156641;23;19989;-81
2024/01/19 06:27:26;;;;;;;2.85;1.67;;;9.60;77.60;;;;;;6155694;23;20013;-79
2024/01/19 06:29:53;;;;;;;3.33;1.70;;;9.50;77.60;;;;;;6154072;23;19994;-80
2024/01/19 06:32:19;;;;;;;3.45;1.88;;;9.50;77.70;;;;;;6179949;23;20029;-81
2024/01/19 06:34:46;;;;;;;4.35;2.03;;;9.60;77.70;;;;;;6180199;23;20012;-80
2024/01/19 06:37:13;;;;;;;3.08;1.77;;;9.60;77.70;;;;;;6128263;23;19990;-81
2024/01/19 06:39:39;;;;;;;3.03;1.70;;;9.50;77.60;;;;;;6131215;23;20058;-81
2024/01/19 06:42:05;;;;;;;3.30;1.80;;;9.50;77.60;;;;;;6154632;23;20013;-80
2024/01/19 06:44:35;;;;;;;3.20;1.90;;;9.70;77.70;;;;;;6178174;23;20005;-79
2024/01/19 06:47:02;;;;;;;3.85;1.73;;;9.60;77.60;;;;;;6146040;23;19994;-80
2024/01/19 06:49:27;;;;;;;3.55;1.90;;;9.60;77.70;;;;;;6139956;23;20400;-79
2024/01/19 06:51:59;;;;;;;3.78;2.03;;;9.40;77.50;;;;;;6153092;23;20073;-81
2024/01/19 06:54:33;;;;;;;3.20;1.90;;;9.60;77.60;;;;;;6155333;23;20024;-81
2024/01/19 06:57:01;;;;;;;4.15;2.25;;;9.60;77.60;;;;;;6155198;23;20060;-81
2024/01/19 06:59:29;;;;;;;3.45;1.92;;;9.60;77.60;;;;;;6155357;23;20013;-81
2024/01/19 07:02:04;;;;;;;3.33;1.98;;;9.50;77.50;;;;;;6155989;23;19993;-81
2024/01/19 07:04:31;;;;;;;4.40;2.10;;;9.50;77.50;;;;;;6154575;23;20013;-81
2024/01/19 07:07:00;;;;;;;4.70;2.30;;;9.60;77.60;;;;;;6145893;23;20009;-80
2024/01/19 07:09:27;;;;;;;4.00;2.10;;;9.60;77.50;;;;;;6155363;23;20013;-81
2024/01/19 07:11:53;;;;;;;3.50;1.90;;;9.20;77.30;;;;;;6132676;23;20006;-81
2024/01/19 07:14:27;;;;;;;3.65;2.10;;;9.60;77.60;;;;;;6147508;23;20008;-81
2024/01/19 07:17:11;;;;;;;3.83;2.20;;;9.60;77.60;;;;;;6179715;23;20005;-80
2024/01/19 07:19:43;;;;;;;3.05;1.98;;;9.50;77.50;;;;;;6156957;23;20013;-80
2024/01/19 07:25:08;;;;;;;6.50;2.50;;;9.50;77.60;;;;;;6190909;23;20020;-82
2024/01/19 07:35:20;;;;;;;5.55;2.83;;;9.50;77.00;;;;;;6178014;23;20001;-84
2024/01/19 07:37:48;;;;;;;5.78;3.20;;;9.50;77.10;;;;;;6207313;23;20017;-82
2024/01/19 07:40:14;;;;;;;7.78;3.35;;;9.70;77.20;;;;;;6186888;23;20012;-86
2024/01/19 07:42:48;;;;;;;8.07;3.13;;;9.70;77.30;;;;;;6186273;23;20000;-85
2024/01/19 07:45:20;;;;;;;7.65;3.15;;;9.50;77.10;;;;;;6187009;23;19999;-83
2024/01/19 07:47:56;;;;;;;;;;;9.50;77.20;;;;;;6188982;23;19996;-83
2024/01/19 07:50:24;;;;;;;5.85;2.88;;;9.50;77.20;;;;;;6189351;23;19898;-83
2024/01/19 07:52:55;;;;;;;7.18;3.45;;;9.60;77.20;;;;;;6213476;23;19997;-82
2024/01/19 07:55:24;;;;;;;7.50;3.17;;;9.60;77.20;;;;;;6189026;23;20017;-85
2024/01/19 07:57:54;;;;;;;7.28;3.30;;;9.60;77.30;;;;;;6210408;23;19993;-82
2024/01/19 08:00:26;;;;;;;6.45;3.50;;;9.50;77.30;;;;;;6188728;23;19997;-84
2024/01/19 08:02:56;;;;;;;6.90;3.30;;;9.60;77.30;;;;;;6214462;23;20045;-84
2024/01/19 08:05:26;;;;;;;7.20;3.38;;;9.50;77.30;;;;;;6164561;23;20024;-82
2024/01/19 08:07:53;;;;;;;8.30;3.50;;;9.60;77.30;;;;;;6185664;23;20035;-81
2024/01/19 08:10:28;;;;;;;5.72;3.45;;;9.40;77.20;;;;;;6164827;23;19993;-83
2024/01/19 08:18:11;;;;;;;9.30;3.47;;;9.50;77.30;;;;;;6201788;23;20064;-84
2024/01/19 08:20:47;;;;;;;9.45;4.00;;;9.50;77.30;;;;;;6191906;23;19996;-85
2024/01/19 08:23:13;;;;;;;7.63;4.18;;;9.50;77.30;;;;;;6190449;23;20004;-85
2024/01/19 08:25:45;;;;;;;9.40;3.72;;;9.40;77.20;;;;;;6190256;23;19993;-86
2024/01/19 08:28:13;;;;;;;;;;;9.40;77.20;;;;;;6167598;23;19989;-85
2024/01/19 08:30:41;;;;;;;7.88;3.80;;;9.60;77.20;;;;;;6215995;23;19888;-86
2024/01/19 08:48:45;;;;;;;7.18;3.92;;;9.50;77.20;;;;;;6185468;23;20060;-85
2024/01/19 08:51:19;;;;;;;10.15;4.28;;;9.60;77.30;;;;;;6186026;23;19978;-85
2024/01/19 08:53:56;;;;;;;7.75;4.05;;;9.50;77.20;;;;;;6185480;23;20017;-85
2024/01/19 08:56:27;;;;;;;8.60;4.20;;;9.60;77.30;;;;;;6190305;23;20008;-85
2024/01/19 08:58:54;;;;;;;9.00;4.32;;;9.50;77.20;;;;;;6189377;23;20025;-85
2024/01/19 09:06:30;;;;;;;14.82;5.20;;;9.50;77.20;;;;;;6176644;23;20005;-86
2024/01/19 09:09:02;;;;;;;19.10;6.20;;;9.60;77.00;;;;;;6188604;23;19997;-85
2024/01/19 09:11:29;;;;;;;;;;;9.60;76.60;;;;;;6182014;23;20001;-85
2024/01/19 09:13:56;;;;;;;14.27;5.80;;;9.60;76.40;;;;;;6213340;23;19907;-85
2024/01/19 09:34:40;;;;;;;14.02;5.57;;;9.60;76.50;;;;;;6156799;23;20011;-85
2024/01/19 09:39:41;;;;;;;14.43;6.55;;;9.70;76.70;;;;;;6171456;23;20019;-84
2024/01/19 09:57:48;;;;;;;15.23;5.68;;;9.90;76.40;;;;;;6214060;23;20004;-85
2024/01/19 10:00:18;;;;;;;11.70;5.55;;;9.90;76.40;;;;;;6191612;23;20005;-81
2024/01/19 10:02:49;;;;;;;11.23;4.85;;;9.90;76.40;;;;;;6187694;23;19985;-84
2024/01/19 10:36:21;;;;;;;9.55;5.25;;;10.10;75.70;;;;;;6211240;23;20164;-85
2024/01/19 10:54:33;;;;;;;7.95;4.53;;;10.30;75.30;;;;;;6196822;23;19998;-83
2024/01/19 10:57:05;;;;;;;7.82;4.75;;;10.30;75.30;;;;;;6187521;23;20025;-82
2024/01/19 10:59:31;;;;;;;8.68;4.95;;;10.30;75.30;;;;;;6187642;23;20009;-84
2024/01/19 11:14:56;;;;;;;7.22;4.60;;;10.30;75.20;;;;;;6143429;23;20038;-81
2024/01/19 11:17:23;;;;;;;7.78;4.25;;;10.20;75.20;;;;;;6187619;23;20033;-84
2024/01/19 11:19:48;;;;;;;8.30;4.88;;;10.40;75.40;;;;;;6162993;23;19996;-84
2024/01/19 11:22:15;;;;;;;11.77;5.43;;;10.40;75.40;;;;;;6212581;23;20009;-82
2024/01/19 11:25:05;;;;;;;9.00;4.72;;;10.30;75.30;;;;;;6157701;23;20021;-85
2024/01/19 11:30:41;;;;;;;7.18;4.43;;;10.40;75.20;;;;;;6209958;23;20085;-83
2024/01/19 11:33:20;;;;;;;8.25;4.80;;;10.40;75.10;;;;;;6209994;23;20024;-83
2024/01/19 11:41:00;;;;;;;7.50;4.80;;;10.50;75.30;;;;;;6186918;23;20021;-84
2024/01/19 11:43:44;;;;;;;7.00;4.10;;;10.50;74.80;;;;;;6212948;23;20008;-84
2024/01/19 11:51:54;;;;;;;8.07;4.25;;;10.60;74.70;;;;;;6167549;23;20081;-84
2024/01/19 11:54:34;;;;;;;6.68;4.13;;;10.60;74.70;;;;;;6177787;23;20061;-82
2024/01/19 11:57:20;;;;;;;7.88;4.22;;;10.70;74.80;;;;;;6157592;23;20013;-84
2024/01/19 11:59:47;;;;;;;7.88;4.50;;;10.60;74.70;;;;;;6158095;23;19993;-84
2024/01/19 12:03:02;;;;;;;7.00;4.30;;;10.60;74.70;;;;;;6156019;23;20028;-81
2024/01/19 12:05:34;;;;;;;7.60;4.20;;;10.70;74.70;;;;;;6182952;23;20025;-86
2024/01/19 12:08:01;;;;;;;6.97;4.00;;;10.60;74.60;;;;;;6143676;23;20001;-83
2024/01/19 12:10:28;;;;;;;7.97;4.32;;;10.50;74.50;;;;;;6186660;23;19993;-86
2024/01/19 12:12:55;;;;;;;6.90;4.28;;;10.70;74.60;;;;;;6163313;23;20013;-83
2024/01/19 12:15:24;;;;;;;7.15;4.05;;;10.60;74.50;;;;;;6187621;23;20001;-81
2024/01/19 12:17:50;;;;;;;7.20;4.07;;;10.60;74.60;;;;;;6187330;23;19989;-81
2024/01/19 12:22:59;;;;;;;6.70;4.20;;;10.60;74.70;;;;;;6195132;23;20081;-83
2024/01/19 12:35:47;;;;;;;7.35;4.30;;;10.60;74.60;;;;;;6194842;23;20210;-86
2024/01/19 12:38:16;;;;;;;7.78;4.15;;;10.60;74.70;;;;;;6189040;23;20004;-84
2024/01/19 12:40:43;;;;;;;8.13;4.28;;;10.70;74.80;;;;;;6189031;23;19991;-85
2024/01/19 12:45:45;;;;;;;8.15;4.25;;;10.50;74.70;;;;;;6244887;23;20136;-85
2024/01/19 12:53:22;;;;;;;7.20;4.28;;;10.60;74.70;;;;;;6194045;23;20004;-83
2024/01/19 12:55:51;;;;;;;6.95;3.60;;;10.60;74.70;;;;;;6174002;23;20012;-85
2024/01/19 12:58:23;;;;;;;7.07;3.90;;;10.50;74.80;;;;;;6218122;23;19985;-83
2024/01/19 13:03:27;;;;;;;6.53;3.80;;;10.60;74.90;;;;;;6155501;23;20005;-85
2024/01/19 13:11:10;;;;;;;6.65;3.90;;;10.60;75.00;;;;;;6209128;23;20029;-80
2024/01/19 13:13:36;;;;;;;6.45;3.80;;;10.60;74.90;;;;;;6188508;23;19993;-80
2024/01/19 13:18:42;;;;;;;6.03;3.47;;;10.50;74.80;;;;;;6179903;23;20009;-83
2024/01/19 13:21:15;;;;;;;6.20;3.70;;;10.50;74.80;;;;;;6188246;23;20023;-84
2024/01/19 13:23:54;;;;;;;7.72;4.38;;;10.50;74.70;;;;;;6188884;23;20009;-83
2024/01/19 13:31:31;;;;;;;6.88;3.90;;;10.60;74.80;;;;;;6145177;23;20016;-83
2024/01/19 13:34:03;;;;;;;6.80;3.88;;;10.40;74.80;;;;;;6188158;23;20052;-83
2024/01/19 13:36:33;;;;;;;6.97;3.78;;;10.50;74.90;;;;;;6178217;23;19990;-82
2024/01/19 13:41:34;;;;;;;8.35;3.92;;;10.60;75.00;;;;;;6210145;23;20076;-84
2024/01/19 13:54:47;;;;;;;6.07;3.50;;;10.50;75.20;;;;;;6154584;23;20046;-86
2024/01/19 14:21:24;;;;;;;6.78;3.88;;;10.30;75.70;;;;;;6183199;23;20012;-86
2024/01/19 14:29:01;;;;;;;7.07;3.90;;;10.30;75.80;;;;;;6195550;23;20005;-85
2024/01/19 14:41:49;;;;;;;7.68;4.05;;;10.20;76.10;;;;;;6213289;23;20038;-85
2024/01/19 14:46:52;;;;;;;7.00;4.40;;;10.20;76.20;;;;;;6166580;23;20004;-84
2024/01/19 14:49:29;;;;;;;11.15;4.60;;;10.70;76.50;;;;;;6210331;23;20001;-82
2024/01/19 14:52:08;;;;;;;7.00;4.13;;;10.20;76.30;;;;;;6212085;23;20049;-82
2024/01/19 14:54:36;;;;;;;6.68;3.97;;;10.20;76.30;;;;;;6212754;23;20013;-83
2024/01/19 14:57:04;;;;;;;7.53;4.43;;;10.20;76.30;;;;;;6210647;23;20016;-84
2024/01/19 14:59:35;;;;;;;8.77;4.68;;;10.10;76.40;;;;;;6212596;23;20020;-84
2024/01/19 15:07:17;;;;;;;7.70;4.55;;;10.10;76.50;;;;;;6170256;23;20001;-85
2024/01/19 15:22:43;;;;;;;7.03;4.40;;;10.10;76.70;;;;;;6179225;23;20009;-85
2024/01/19 15:27:47;;;;;;;7.45;4.05;;;10.00;76.70;;;;;;6207220;23;19960;-84
2024/01/19 15:38:06;;;;;;;8.00;4.93;;;10.00;76.80;;;;;;6198570;23;19900;-82
2024/01/19 15:40:37;;;;;;;8.82;4.93;;;9.90;76.80;;;;;;6139707;23;19990;-83
2024/01/19 15:43:06;;;;;;;8.05;5.07;;;10.00;76.90;;;;;;6163994;23;19993;-82
2024/01/19 15:45:39;;;;;;;8.75;5.57;;;10.00;76.90;;;;;;6187280;23;19998;-81
2024/01/19 15:48:06;;;;;;;8.32;4.82;;;10.00;76.80;;;;;;6164474;23;19989;-83
2024/01/19 15:50:32;;;;;;;8.55;4.97;;;9.90;76.90;;;;;;6187422;23;20021;-82
2024/01/19 15:53:14;;;;;;;8.30;4.70;;;9.90;77.00;;;;;;6197164;23;20036;-81
2024/01/19 15:55:45;;;;;;;10.43;5.22;;;9.90;77.00;;;;;;6187731;23;20001;-82
2024/01/19 15:58:19;;;;;;;8.85;5.35;;;9.90;77.00;;;;;;6188466;23;19996;-82
2024/01/19 16:00:49;;;;;;;8.63;4.80;;;9.90;77.00;;;;;;6187845;23;20004;-83
2024/01/19 16:03:19;;;;;;;8.13;4.93;;;10.60;77.40;;;;;;6212868;23;20001;-81
2024/01/19 16:05:48;;;;;;;10.63;4.93;;;9.80;77.00;;;;;;6187194;23;20225;-81
2024/01/19 16:10:53;;;;;;;9.05;5.45;;;9.90;77.10;;;;;;6184469;23;20061;-80
2024/01/19 16:13:24;;;;;;;7.97;5.15;;;9.80;77.20;;;;;;6180474;23;20023;-82
2024/01/19 16:15:51;;;;;;;8.98;4.90;;;9.80;77.10;;;;;;6188749;23;19993;-80
2024/01/19 16:18:17;;;;;;;8.25;5.15;;;9.80;77.40;;;;;;6164454;23;19989;-82
2024/01/19 16:20:45;;;;;;;8.30;4.95;;;10.60;77.80;;;;;;6189601;23;20004;-80
2024/01/19 16:23:11;;;;;;;8.32;4.97;;;9.80;77.30;;;;;;6188638;23;20016;-83
2024/01/19 16:25:48;;;;;;;7.68;4.88;;;9.70;77.20;;;;;;6164668;23;19989;-84
2024/01/19 16:28:17;;;;;;;9.45;5.68;;;10.60;77.80;;;;;;6189073;23;19985;-82
2024/01/19 16:30:43;;;;;;;10.40;6.35;;;9.80;77.20;;;;;;6189191;23;19997;-82
2024/01/19 16:35:56;;;;;;;9.15;5.75;;;9.80;77.50;;;;;;6213557;23;20037;-84
2024/01/19 16:40:58;;;;;;;10.25;5.93;;;9.80;77.20;;;;;;6168168;23;20004;-87
2024/01/19 17:24:00;;;;;;;10.98;7.13;;;9.70;77.10;;;;;;6202241;23;20008;-83
2024/01/19 17:29:20;;;;;;;14.48;7.00;;;9.70;77.20;;;;;;6211567;23;20069;-86
2024/01/19 17:32:00;;;;;;;16.15;8.00;;;9.70;77.20;;;;;;6205228;23;20004;-86
2024/01/19 18:05:32;;;;;;;11.32;6.97;;;9.70;77.40;;;;;;6155334;23;20025;-83
2024/01/19 18:13:11;;;;;;;10.85;7.03;;;9.70;77.40;;;;;;6196601;23;20036;-84
2024/01/19 18:15:39;;;;;;;11.52;7.40;;;9.60;77.40;;;;;;6236214;23;20039;-82
2024/01/19 18:23:16;;;;;;;10.85;7.05;;;9.70;77.30;;;;;;6206594;23;20012;-85
2024/01/19 18:25:44;;;;;;;13.18;7.78;;;9.70;77.30;;;;;;6198401;23;20118;-85
2024/01/19 18:28:12;;;;;;;11.77;7.22;;;9.70;77.40;;;;;;6190833;23;19981;-85
2024/01/19 18:30:41;;;;;;;10.82;7.50;;;9.60;77.40;;;;;;6190175;23;19981;-85
2024/01/19 18:33:10;;;;;;;11.40;7.38;;;9.70;77.50;;;;;;6172404;23;19997;-83
2024/01/19 18:35:42;;;;;;;11.68;7.10;;;9.70;77.50;;;;;;6150571;23;20017;-82
2024/01/19 18:38:08;;;;;;;11.35;6.85;;;9.80;77.40;;;;;;6158283;23;19989;-84
2024/01/19 18:40:38;;;;;;;11.13;6.95;;;9.60;77.40;;;;;;6157812;23;19990;-84
2024/01/19 18:43:05;;;;;;;13.52;7.68;;;9.60;77.40;;;;;;6141901;23;20001;-80
2024/01/19 18:45:33;;;;;;;10.95;7.32;;;9.60;77.40;;;;;;6212531;23;20019;-79
2024/01/19 18:48:03;;;;;;;10.90;6.88;;;9.90;77.50;;;;;;6213730;23;20041;-84
2024/01/19 18:50:30;;;;;;;10.48;6.93;;;9.60;77.40;;;;;;6184712;23;20028;-82
2024/01/19 18:52:56;;;;;;;12.43;7.30;;;9.40;77.30;;;;;;6163303;23;20012;-85
2024/01/19 19:00:35;;;;;;;11.90;7.43;;;9.70;77.40;;;;;;6213377;23;20001;-84
2024/01/19 19:03:01;;;;;;;11.43;6.90;;;9.70;77.40;;;;;;6178233;23;19996;-83
2024/01/19 19:05:28;;;;;;;11.50;7.00;;;9.50;77.30;;;;;;6243728;23;20012;-80